Time;durP1;ratioP1;P1;durP2;ratioP2;P2;SDS_P1;SDS_P2;PMS_P1;PMS_P2;Temp;Humidity;BMP_temperature;BMP_pressure;BME280_temperature;BME280_humidity;BME280_pressure;Samples;Min_cycle;Max_cycle;Signal;HPM_P1;HPM_P2
2023/06/18 00:01:23;;;;;;;;;;;22.30;86.20;;;;;;5041676;28;19951;-74
2023/06/18 00:03:49;;;;;;;;;;;22.30;86.50;;;;;;5053922;28;19951;-74
2023/06/18 00:06:14;;;;;;;;;;;22.30;86.90;;;;;;5060608;28;20765;-75
2023/06/18 00:08:40;;;;;;;;;;;22.30;86.80;;;;;;5057248;28;20375;-75
2023/06/18 00:11:05;;;;;;;;;;;22.30;86.70;;;;;;5058650;28;19913;-75
2023/06/18 00:13:31;;;;;;;;;;;22.30;87.10;;;;;;5053418;28;20491;-74
2023/06/18 00:15:56;;;;;;;;;;;22.10;88.30;;;;;;5062456;28;19916;-74
2023/06/18 00:18:22;;;;;;;;;;;22.10;88.40;;;;;;5064816;28;19951;-74
2023/06/18 00:20:48;;;;;;;;;;;22.20;88.60;;;;;;5058489;28;19993;-74
2023/06/18 00:23:14;;;;;;;;;;;22.10;89.00;;;;;;5054474;28;19917;-74
2023/06/18 00:25:40;;;;;;;;;;;22.10;89.20;;;;;;5056869;28;19928;-74
2023/06/18 00:28:05;;;;;;;;;;;22.10;89.30;;;;;;5059547;28;19986;-75
2023/06/18 00:30:31;;;;;;;;;;;22.00;90.00;;;;;;5060084;28;20260;-74
2023/06/18 00:32:58;;;;;;;;;;;22.00;89.90;;;;;;5062609;28;19912;-74
2023/06/18 00:35:23;;;;;;;;;;;22.00;90.10;;;;;;5060672;28;20620;-74
2023/06/18 00:37:49;;;;;;;;;;;21.90;90.20;;;;;;5055352;28;19913;-74
2023/06/18 00:40:15;;;;;;;;;;;21.90;90.30;;;;;;5060088;28;19923;-74
2023/06/18 00:42:41;;;;;;;;;;;21.90;90.50;;;;;;5045915;28;19912;-74
2023/06/18 00:45:09;;;;;;;;;;;21.80;90.50;;;;;;5045468;28;19989;-75
2023/06/18 00:47:36;;;;;;;;;;;21.80;90.70;;;;;;5055156;28;19924;-75
2023/06/18 00:50:05;;;;;;;;;;;21.80;90.80;;;;;;5045056;28;20401;-75
2023/06/18 00:52:33;;;;;;;;;;;21.80;90.90;;;;;;5053066;28;20791;-74
2023/06/18 00:54:58;;;;;;;;;;;21.90;90.80;;;;;;5043812;28;19919;-74
2023/06/18 00:57:24;;;;;;;;;;;21.90;90.70;;;;;;5054864;28;19912;-74
2023/06/18 00:59:51;;;;;;;;;;;21.90;90.90;;;;;;5062630;28;20336;-74
2023/06/18 01:02:25;;;;;;;;;;;21.90;90.80;;;;;;5058946;28;20057;-74
2023/06/18 01:04:53;;;;;;;;;;;21.80;91.10;;;;;;5062353;28;19915;-74
2023/06/18 01:07:22;;;;;;;;;;;21.80;90.80;;;;;;5060526;28;19916;-74
2023/06/18 01:09:54;;;;;;;;;;;21.90;90.80;;;;;;5063873;28;19935;-75
2023/06/18 01:12:27;;;;;;;;;;;21.70;91.30;;;;;;5069862;28;19958;-74
2023/06/18 01:14:56;;;;;;;;;;;21.70;91.30;;;;;;5058194;28;20634;-75
2023/06/18 01:17:23;;;;;;;;;;;21.70;91.30;;;;;;5058818;28;19912;-75
2023/06/18 01:19:55;;;;;;;;;;;21.70;91.10;;;;;;5048803;28;19908;-74
2023/06/18 01:22:26;;;;;;;;;;;21.50;91.60;;;;;;5063762;28;19920;-75
2023/06/18 01:24:54;;;;;;;;;;;21.40;92.00;;;;;;5061025;28;19908;-75
2023/06/18 01:27:21;;;;;;;;;;;21.30;92.30;;;;;;5054735;28;19960;-74
2023/06/18 01:29:48;;;;;;;;;;;21.40;92.20;;;;;;5057534;28;19913;-75
2023/06/18 01:32:14;;;;;;;;;;;21.20;92.50;;;;;;5060970;28;19908;-74
2023/06/18 01:34:40;;;;;;;;;;;21.20;92.80;;;;;;5055604;28;19919;-75
2023/06/18 01:37:06;;;;;;;;;;;21.20;92.90;;;;;;5062863;28;19913;-74
2023/06/18 01:39:37;;;;;;;;;;;21.10;92.90;;;;;;5053425;28;20784;-75
2023/06/18 01:42:23;;;;;;;;;;;21.20;92.80;;;;;;5053657;28;20003;-74
2023/06/18 01:44:55;;;;;;;;;;;21.10;92.90;;;;;;5059889;28;19918;-74
2023/06/18 01:47:21;;;;;;;;;;;21.20;92.80;;;;;;5060325;28;19927;-75
2023/06/18 01:49:47;;;;;;;;;;;21.30;92.40;;;;;;5059714;28;20354;-75
2023/06/18 01:52:16;;;;;;;;;;;21.30;92.40;;;;;;5053294;28;19912;-74
2023/06/18 01:54:46;;;;;;;;;;;21.30;92.40;;;;;;5049332;28;20015;-75
2023/06/18 01:57:13;;;;;;;;;;;21.30;92.40;;;;;;5058981;28;20746;-75
2023/06/18 01:59:42;;;;;;;;;;;21.20;92.60;;;;;;5056468;28;19930;-74
2023/06/18 02:02:08;;;;;;;;;;;21.10;93.10;;;;;;5059247;28;19913;-75
2023/06/18 02:04:33;;;;;;;;;;;21.00;93.70;;;;;;5057195;28;19985;-75
2023/06/18 02:06:59;;;;;;;;;;;20.60;95.10;;;;;;5057894;28;19971;-75
2023/06/18 02:09:24;;;;;;;;;;;20.60;95.70;;;;;;5059360;28;19916;-75
2023/06/18 02:11:50;;;;;;;;;;;20.50;96.40;;;;;;5034245;28;19913;-75
2023/06/18 02:14:15;;;;;;;;;;;20.80;96.00;;;;;;5060463;28;19912;-75
2023/06/18 02:16:41;;;;;;;;;;;20.70;96.30;;;;;;5050546;28;20497;-75
2023/06/18 02:19:06;;;;;;;;;;;20.50;97.70;;;;;;5057287;28;19912;-75
2023/06/18 02:21:32;;;;;;;;;;;20.50;98.20;;;;;;5030883;28;19912;-75
2023/06/18 02:23:58;;;;;;;;;;;20.80;97.30;;;;;;5061136;28;19946;-76
2023/06/18 02:26:23;;;;;;;;;;;20.80;97.00;;;;;;5049296;28;20450;-75
2023/06/18 02:28:49;;;;;;;;;;;21.10;96.40;;;;;;5055459;28;19916;-75
2023/06/18 02:31:14;;;;;;;;;;;21.00;96.10;;;;;;5061853;28;20389;-75
2023/06/18 02:33:40;;;;;;;;;;;20.60;97.20;;;;;;5061373;28;19912;-74
2023/06/18 02:36:05;;;;;;;;;;;20.50;97.90;;;;;;5035347;28;19919;-74
2023/06/18 02:38:31;;;;;;;;;;;20.40;98.20;;;;;;5061868;28;20008;-75
2023/06/18 02:40:57;;;;;;;;;;;20.30;98.50;;;;;;5051908;28;19916;-74
2023/06/18 02:43:24;;;;;;;;;;;20.40;98.60;;;;;;5055199;28;19916;-75
2023/06/18 02:45:51;;;;;;;;;;;20.30;98.50;;;;;;5060196;28;19931;-75
2023/06/18 02:48:16;;;;;;;;;;;20.30;98.50;;;;;;5034965;28;19908;-74
2023/06/18 02:50:42;;;;;;;;;;;20.30;98.20;;;;;;5057545;28;19963;-75
2023/06/18 02:53:07;;;;;;;;;;;20.30;98.10;;;;;;5054985;28;19979;-74
2023/06/18 02:55:33;;;;;;;;;;;20.30;97.90;;;;;;5051985;28;19944;-74
2023/06/18 02:57:59;;;;;;;;;;;20.30;98.00;;;;;;5049164;28;20814;-74
2023/06/18 03:00:24;;;;;;;;;;;20.20;98.30;;;;;;5058845;28;20009;-74
2023/06/18 03:02:50;;;;;;;;;;;20.20;98.10;;;;;;5059210;28;20572;-74
2023/06/18 03:05:15;;;;;;;;;;;20.30;97.90;;;;;;5058881;28;20482;-75
2023/06/18 03:07:41;;;;;;;;;;;20.20;97.90;;;;;;5055854;28;19929;-74
2023/06/18 03:10:08;;;;;;;;;;;20.20;97.80;;;;;;5054282;28;19908;-74
2023/06/18 03:12:33;;;;;;;;;;;20.20;97.70;;;;;;5053517;28;19908;-74
2023/06/18 03:14:59;;;;;;;;;;;20.20;97.50;;;;;;5059210;28;19915;-74
2023/06/18 03:17:24;;;;;;;;;;;20.20;97.40;;;;;;5054342;28;19923;-74
2023/06/18 03:19:50;;;;;;;;;;;20.20;97.30;;;;;;5062060;28;19919;-75
2023/06/18 03:22:16;;;;;;;;;;;20.20;97.20;;;;;;5051339;28;19912;-75
2023/06/18 03:24:41;;;;;;;;;;;20.20;96.90;;;;;;5057787;28;19916;-75
2023/06/18 03:27:07;;;;;;;;;;;20.30;96.70;;;;;;5035550;28;19957;-74
2023/06/18 03:29:36;;;;;;;;;;;20.20;96.70;;;;;;5047516;28;19908;-75
2023/06/18 03:32:02;;;;;;;;;;;20.20;96.90;;;;;;5064548;28;19952;-74
2023/06/18 03:34:28;;;;;;;;;;;20.20;96.60;;;;;;5059508;28;20011;-74
2023/06/18 03:36:53;;;;;;;;;;;20.30;96.30;;;;;;5054953;28;19912;-75
2023/06/18 03:39:20;;;;;;;;;;;20.30;96.20;;;;;;5038652;28;20025;-75
2023/06/18 03:41:45;;;;;;;;;;;20.30;96.00;;;;;;5054418;28;19912;-75
2023/06/18 03:44:11;;;;;;;;;;;20.30;95.60;;;;;;5058872;28;19919;-75
2023/06/18 03:46:36;;;;;;;;;;;20.30;95.70;;;;;;5052514;28;19920;-74
2023/06/18 03:49:03;;;;;;;;;;;20.30;95.60;;;;;;5056894;28;20512;-74
2023/06/18 03:51:29;;;;;;;;;;;20.30;95.70;;;;;;5033048;28;19916;-74
2023/06/18 03:53:54;;;;;;;;;;;20.20;95.70;;;;;;5048788;28;19920;-75
2023/06/18 03:56:21;;;;;;;;;;;20.20;95.80;;;;;;5053007;28;19923;-75
2023/06/18 03:58:48;;;;;;;;;;;20.20;95.80;;;;;;5050127;28;19913;-74
2023/06/18 04:01:14;;;;;;;;;;;20.20;95.90;;;;;;5042988;28;19911;-75
2023/06/18 04:03:39;;;;;;;;;;;20.20;95.70;;;;;;5054602;28;19909;-74
2023/06/18 04:06:05;;;;;;;;;;;20.20;95.50;;;;;;5060378;28;19924;-74
2023/06/18 04:08:31;;;;;;;;;;;20.20;95.40;;;;;;5060908;28;19916;-75
2023/06/18 04:10:56;;;;;;;;;;;20.30;95.30;;;;;;5056132;28;20034;-74
2023/06/18 04:13:22;;;;;;;;;;;20.30;95.00;;;;;;5060955;28;19981;-75
2023/06/18 04:15:48;;;;;;;;;;;20.30;94.80;;;;;;5040482;28;19913;-75
2023/06/18 04:18:13;;;;;;;;;;;20.30;94.80;;;;;;5064235;28;20343;-75
2023/06/18 04:20:39;;;;;;;;;;;20.20;94.80;;;;;;5063512;28;20380;-74
2023/06/18 04:23:06;;;;;;;;;;;20.20;94.70;;;;;;5059108;28;20027;-74
2023/06/18 04:25:32;;;;;;;;;;;20.20;94.80;;;;;;5062494;28;20078;-75
2023/06/18 04:27:57;;;;;;;;;;;20.10;94.70;;;;;;5050573;28;19912;-74
2023/06/18 04:30:23;;;;;;;;;;;20.10;94.60;;;;;;5055936;28;19920;-75
2023/06/18 04:32:48;;;;;;;;;;;20.20;94.40;;;;;;5057801;28;19919;-75
2023/06/18 04:35:14;;;;;;;;;;;20.10;94.20;;;;;;5057837;28;19912;-74
2023/06/18 04:37:39;;;;;;;;;;;20.30;93.90;;;;;;5057854;28;19963;-75
2023/06/18 04:40:05;;;;;;;;;;;20.10;93.90;;;;;;5058086;28;20501;-74
2023/06/18 04:42:32;;;;;;;;;;;20.10;94.00;;;;;;5059338;28;19928;-74
2023/06/18 04:44:58;;;;;;;;;;;20.10;94.10;;;;;;5064529;28;19923;-74
2023/06/18 04:47:23;;;;;;;;;;;20.00;94.30;;;;;;5057010;28;20441;-75
2023/06/18 04:49:49;;;;;;;;;;;20.10;94.30;;;;;;5059009;28;20015;-75
2023/06/18 04:52:15;;;;;;;;;;;20.00;94.30;;;;;;5061779;28;19916;-76
2023/06/18 04:54:42;;;;;;;;;;;20.00;94.40;;;;;;5061767;28;19920;-75
2023/06/18 04:57:09;;;;;;;;;;;20.10;94.20;;;;;;5052607;28;19912;-74
2023/06/18 04:59:35;;;;;;;;;;;20.30;94.00;;;;;;5059069;28;19927;-75
2023/06/18 05:02:01;;;;;;;;;;;20.80;93.30;;;;;;5061596;28;19909;-74
2023/06/18 05:04:26;;;;;;;;;;;21.40;92.10;;;;;;5063488;28;19912;-74
2023/06/18 05:06:52;;;;;;;;;;;22.70;90.30;;;;;;5051873;28;19951;-75
2023/06/18 05:09:18;;;;;;;;;;;24.20;84.00;;;;;;5047248;28;19952;-75
2023/06/18 05:11:44;;;;;;;;;;;25.10;80.10;;;;;;5031593;28;20020;-75
2023/06/18 05:14:09;;;;;;;;;;;25.50;78.30;;;;;;5063047;28;20011;-75
2023/06/18 05:16:35;;;;;;;;;;;25.70;77.20;;;;;;5053736;28;20009;-75
2023/06/18 05:19:01;;;;;;;;;;;25.70;76.60;;;;;;5055560;28;19943;-75
2023/06/18 05:21:26;;;;;;;;;;;25.80;76.10;;;;;;5054822;28;19912;-75
2023/06/18 05:23:52;;;;;;;;;;;25.50;76.00;;;;;;5050357;28;19908;-75
2023/06/18 05:26:17;;;;;;;;;;;26.00;75.40;;;;;;5045989;28;20015;-75
2023/06/18 05:28:43;;;;;;;;;;;26.70;73.40;;;;;;5050939;28;19952;-75
2023/06/18 05:31:09;;;;;;;;;;;26.90;71.90;;;;;;5057578;28;19939;-76
2023/06/18 05:33:34;;;;;;;;;;;27.30;70.20;;;;;;5041308;28;19909;-76
2023/06/18 05:36:00;;;;;;;;;;;27.90;69.10;;;;;;5051453;28;20515;-76
2023/06/18 05:38:25;;;;;;;;;;;27.70;68.70;;;;;;5050743;28;19924;-76
2023/06/18 05:40:51;;;;;;;;;;;27.00;70.30;;;;;;5052599;28;20430;-75
2023/06/18 05:43:16;;;;;;;;;;;26.70;70.80;;;;;;5062057;28;19947;-75
2023/06/18 05:45:42;;;;;;;;;;;25.80;73.80;;;;;;5060793;28;20011;-75
2023/06/18 05:48:11;;;;;;;;;;;26.30;73.10;;;;;;5031500;28;19917;-76
2023/06/18 05:50:37;;;;;;;;;;;27.80;69.70;;;;;;5051918;28;19916;-75
2023/06/18 05:53:02;;;;;;;;;;;28.80;65.80;;;;;;5055777;28;19951;-76
2023/06/18 05:55:28;;;;;;;;;;;29.60;64.70;;;;;;5043540;28;19913;-75
2023/06/18 05:57:53;;;;;;;;;;;29.40;63.40;;;;;;5056912;28;19921;-75
2023/06/18 06:00:19;;;;;;;;;;;30.20;61.80;;;;;;5052953;28;19919;-74
2023/06/18 06:02:45;;;;;;;;;;;30.60;60.70;;;;;;5044044;28;19916;-76
2023/06/18 06:05:11;;;;;;;;;;;30.90;59.00;;;;;;5051783;28;19912;-75
2023/06/18 06:07:36;;;;;;;;;;;31.00;58.80;;;;;;5048595;28;20386;-75
2023/06/18 06:10:02;;;;;;;;;;;31.00;58.80;;;;;;5051404;28;19915;-74
2023/06/18 06:12:27;;;;;;;;;;;31.20;57.60;;;;;;5050236;28;20426;-74
2023/06/18 06:14:53;;;;;;;;;;;31.40;58.00;;;;;;5049268;28;20719;-74
2023/06/18 06:17:18;;;;;;;;;;;31.40;57.20;;;;;;5055591;28;20030;-75
2023/06/18 06:19:44;;;;;;;;;;;31.30;57.30;;;;;;5062182;28;19986;-76
2023/06/18 06:22:10;;;;;;;;;;;31.50;56.20;;;;;;5059297;28;19999;-75
2023/06/18 06:24:35;;;;;;;;;;;32.10;55.80;;;;;;5050975;28;19924;-75
2023/06/18 06:27:01;;;;;;;;;;;32.00;55.70;;;;;;5027800;28;19921;-75
2023/06/18 06:29:26;;;;;;;;;;;32.20;54.80;;;;;;5061303;28;19912;-74
2023/06/18 06:31:52;;;;;;;;;;;32.50;55.60;;;;;;5049495;28;20423;-75
2023/06/18 06:34:19;;;;;;;;;;;33.20;52.40;;;;;;5043141;28;19909;-74
2023/06/18 06:36:45;;;;;;;;;;;33.40;52.60;;;;;;5042648;28;19965;-75
2023/06/18 06:39:11;;;;;;;;;;;34.20;51.50;;;;;;5043619;28;20426;-74
2023/06/18 06:41:36;;;;;;;;;;;34.10;51.20;;;;;;5043038;28;19909;-74
2023/06/18 06:44:02;;;;;;;;;;;34.20;51.70;;;;;;5042899;28;19915;-75
2023/06/18 06:46:28;;;;;;;;;;;34.70;50.60;;;;;;5047755;28;20413;-75
2023/06/18 06:48:54;;;;;;;;;;;34.40;49.50;;;;;;5057821;28;19909;-74
2023/06/18 06:51:19;;;;;;;;;;;30.10;55.80;;;;;;5053131;28;19913;-75
2023/06/18 06:53:45;;;;;;;;;;;28.30;61.90;;;;;;5042797;28;20375;-75
2023/06/18 06:56:11;;;;;;;;;;;32.10;56.40;;;;;;5043008;28;19913;-74
2023/06/18 06:58:36;;;;;;;;;;;34.30;52.00;;;;;;5043082;28;19909;-74
2023/06/18 07:01:02;;;;;;;;;;;35.10;49.80;;;;;;5047426;28;19908;-74
2023/06/18 07:03:27;;;;;;;;;;;35.80;49.40;;;;;;5042502;28;19908;-74
2023/06/18 07:05:55;;;;;;;;;;;35.40;48.90;;;;;;5042898;28;20275;-75
2023/06/18 07:08:21;;;;;;;;;;;35.70;47.90;;;;;;5042738;28;20443;-74
2023/06/18 07:10:47;;;;;;;;;;;35.30;48.80;;;;;;5042473;28;19908;-74
2023/06/18 07:13:12;;;;;;;;;;;35.40;48.70;;;;;;5042983;28;20380;-75
2023/06/18 07:15:38;;;;;;;;;;;35.90;46.70;;;;;;5048497;28;19940;-75
2023/06/18 07:18:04;;;;;;;;;;;35.90;47.50;;;;;;5062025;28;20488;-75
2023/06/18 07:20:29;;;;;;;;;;;36.30;47.50;;;;;;5063560;28;20019;-77
2023/06/18 07:22:55;;;;;;;;;;;36.60;47.30;;;;;;5061414;28;19919;-77
2023/06/18 07:25:20;;;;;;;;;;;36.40;46.80;;;;;;5052275;28;19920;-77
2023/06/18 07:27:46;;;;;;;;;;;37.10;45.80;;;;;;5061554;28;19917;-76
2023/06/18 07:30:12;;;;;;;;;;;37.90;44.90;;;;;;5059846;28;19912;-77
2023/06/18 07:32:37;;;;;;;;;;;37.20;44.00;;;;;;5056634;28;19919;-74
2023/06/18 07:35:03;;;;;;;;;;;37.30;45.40;;;;;;5052787;28;20355;-75
2023/06/18 07:37:29;;;;;;;;;;;38.00;45.40;;;;;;5053482;28;19988;-74
2023/06/18 07:39:55;;;;;;;;;;;37.40;44.30;;;;;;5050442;28;20027;-76
2023/06/18 07:42:20;;;;;;;;;;;37.60;45.70;;;;;;5053358;28;19912;-75
2023/06/18 07:44:46;;;;;;;;;;;37.60;44.90;;;;;;5061783;28;20030;-75
2023/06/18 07:47:12;;;;;;;;;;;37.70;45.20;;;;;;5048704;28;19913;-76
2023/06/18 07:49:37;;;;;;;;;;;37.60;44.90;;;;;;5037876;28;19916;-75
2023/06/18 07:52:03;;;;;;;;;;;37.70;44.30;;;;;;5056423;28;20057;-75
2023/06/18 07:54:28;;;;;;;;;;;38.30;43.80;;;;;;5056465;28;19925;-75
2023/06/18 07:56:54;;;;;;;;;;;38.70;43.00;;;;;;5051190;28;20088;-76
2023/06/18 07:59:20;;;;;;;;;;;38.90;43.70;;;;;;5046361;28;19927;-76
2023/06/18 08:01:46;;;;;;;;;;;38.90;42.10;;;;;;5056771;28;19916;-77
2023/06/18 08:04:11;;;;;;;;;;;37.90;41.30;;;;;;5045431;28;20047;-77
2023/06/18 08:06:37;;;;;;;;;;;39.80;39.30;;;;;;5045596;28;19920;-76
2023/06/18 08:09:03;;;;;;;;;;;39.70;38.80;;;;;;5059070;28;20284;-77
2023/06/18 08:11:29;;;;;;;;;;;39.50;40.30;;;;;;5045686;28;19909;-76
2023/06/18 08:13:55;;;;;;;;;;;40.80;38.00;;;;;;5045629;28;20383;-78
2023/06/18 08:16:22;;;;;;;;;;;40.40;38.90;;;;;;5053367;28;19938;-77
2023/06/18 08:18:48;;;;;;;;;;;39.90;40.60;;;;;;5061477;28;19904;-79
2023/06/18 08:21:13;;;;;;;;;;;42.00;38.80;;;;;;5038722;28;19908;-77
2023/06/18 08:23:39;;;;;;;;;;;41.20;38.80;;;;;;5045494;28;21047;-79
2023/06/18 08:26:05;;;;;;;;;;;42.20;37.10;;;;;;5036571;28;19912;-77
2023/06/18 08:28:30;;;;;;;;;;;42.00;36.60;;;;;;5054979;28;19954;-77
2023/06/18 08:30:56;;;;;;;;;;;40.70;37.30;;;;;;5045601;28;19915;-76
2023/06/18 08:33:22;;;;;;;;;;;39.30;38.70;;;;;;5060710;28;19995;-77
2023/06/18 08:35:47;;;;;;;;;;;38.90;38.80;;;;;;5062579;28;20027;-75
2023/06/18 08:38:13;;;;;;;;;;;39.80;37.90;;;;;;5058135;28;19912;-77
2023/06/18 08:40:55;;;;;;;;;;;40.80;36.80;;;;;;5045231;28;20025;-75
2023/06/18 08:43:26;;;;;;;;;;;38.70;38.10;;;;;;5045253;28;19917;-78
2023/06/18 08:45:52;;;;;;;;;;;38.10;38.80;;;;;;5045927;28;19974;-77
2023/06/18 08:48:24;;;;;;;;;;;39.10;37.50;;;;;;5049482;28;19913;-77
2023/06/18 08:50:53;;;;;;;;;;;40.50;37.50;;;;;;5044892;28;19909;-78
2023/06/18 08:53:22;;;;;;;;;;;41.80;35.10;;;;;;5048785;28;19927;-77
2023/06/18 08:55:48;;;;;;;;;;;38.50;38.20;;;;;;5043320;28;19932;-74
2023/06/18 08:58:17;;;;;;;;;;;38.80;34.70;;;;;;5061280;28;19919;-76
2023/06/18 09:00:43;;;;;;;;;;;38.20;36.60;;;;;;5064045;28;19919;-75
2023/06/18 09:03:10;;;;;;;;;;;39.40;34.90;;;;;;5061008;28;19912;-76
2023/06/18 09:05:36;;;;;;;;;;;38.90;35.70;;;;;;5056269;28;20013;-77
2023/06/18 09:08:01;;;;;;;;;;;39.10;35.20;;;;;;5060981;28;19934;-74
2023/06/18 09:10:27;;;;;;;;;;;40.20;35.30;;;;;;5046289;28;19912;-75
2023/06/18 09:12:53;;;;;;;;;;;39.50;36.70;;;;;;5060723;28;20436;-76
2023/06/18 09:15:18;;;;;;;;;;;38.90;35.00;;;;;;5057488;28;20007;-76
2023/06/18 09:17:48;;;;;;;;;;;39.40;36.30;;;;;;5038156;28;20686;-77
2023/06/18 09:20:17;;;;;;;;;;;39.60;35.60;;;;;;5055823;28;19904;-77
2023/06/18 09:22:47;;;;;;;;;;;40.70;34.80;;;;;;5051172;28;19916;-76
2023/06/18 09:25:22;;;;;;;;;;;38.80;36.30;;;;;;5057350;28;19915;-79
2023/06/18 09:27:48;;;;;;;;;;;39.40;35.60;;;;;;5052000;28;20003;-77
2023/06/18 09:30:17;;;;;;;;;;;41.00;35.60;;;;;;5062691;28;19914;-74
2023/06/18 09:32:47;;;;;;;;;;;42.00;33.30;;;;;;5058838;28;19962;-76
2023/06/18 09:35:13;;;;;;;;;;;42.10;34.00;;;;;;5050554;28;20269;-80
2023/06/18 09:37:39;;;;;;;;;;;41.00;32.40;;;;;;5040702;28;19908;-76
2023/06/18 09:40:14;;;;;;;;;;;41.80;33.70;;;;;;5055794;28;20649;-78
2023/06/18 09:42:40;;;;;;;;;;;41.80;33.70;;;;;;5054790;28;19919;-76
2023/06/18 09:45:06;;;;;;;;;;;39.70;34.70;;;;;;5052706;28;19913;-78
2023/06/18 09:47:32;;;;;;;;;;;40.50;34.50;;;;;;5052654;28;20023;-75
2023/06/18 09:49:58;;;;;;;;;;;41.80;33.90;;;;;;5052328;28;19940;-76
2023/06/18 09:52:24;;;;;;;;;;;42.20;34.90;;;;;;5040184;28;19908;-75
2023/06/18 09:54:50;;;;;;;;;;;40.60;34.10;;;;;;5061415;28;19908;-76
2023/06/18 09:57:16;;;;;;;;;;;39.80;35.60;;;;;;5058609;28;19927;-77
2023/06/18 09:59:41;;;;;;;;;;;39.80;35.00;;;;;;5045657;28;19913;-76
2023/06/18 10:02:12;;;;;;;;;;;40.10;34.70;;;;;;5063196;28;19915;-78
2023/06/18 10:04:38;;;;;;;;;;;40.70;36.20;;;;;;5061191;28;19915;-78
2023/06/18 10:07:04;;;;;;;;;;;42.50;33.50;;;;;;5060498;28;20490;-76
2023/06/18 10:09:35;;;;;;;;;;;41.50;33.80;;;;;;5055364;28;20696;-77
2023/06/18 10:12:02;;;;;;;;;;;39.10;35.80;;;;;;5052079;28;19912;-76
2023/06/18 10:14:28;;;;;;;;;;;39.90;35.80;;;;;;5056742;28;19913;-79
2023/06/18 10:16:57;;;;;;;;;;;39.30;34.90;;;;;;5057054;28;19908;-75
2023/06/18 10:19:30;;;;;;;;;;;40.30;34.20;;;;;;5056161;28;19919;-76
2023/06/18 10:21:57;;;;;;;;;;;40.60;35.50;;;;;;5058454;28;19915;-77
2023/06/18 10:24:27;;;;;;;;;;;41.80;35.20;;;;;;5057949;28;19951;-76
2023/06/18 10:26:54;;;;;;;;;;;42.20;33.80;;;;;;5047387;28;19986;-75
2023/06/18 10:29:21;;;;;;;;;;;42.10;33.50;;;;;;5050394;28;20002;-75
2023/06/18 10:31:46;;;;;;;;;;;43.20;33.40;;;;;;5051277;28;20370;-75
2023/06/18 10:34:12;;;;;;;;;;;42.70;33.40;;;;;;5054397;28;19975;-73
2023/06/18 10:36:38;;;;;;;;;;;40.50;35.00;;;;;;5045186;28;19935;-73
2023/06/18 10:39:04;;;;;;;;;;;41.70;34.40;;;;;;5044625;28;20112;-73
2023/06/18 10:41:30;;;;;;;;;;;41.20;33.60;;;;;;5059154;28;20683;-74
2023/06/18 10:43:55;;;;;;;;;;;40.90;33.80;;;;;;5052381;28;19917;-74
2023/06/18 10:46:21;;;;;;;;;;;40.10;34.80;;;;;;5059322;28;20006;-74
2023/06/18 10:49:10;;;;;;;;;;;38.70;35.00;;;;;;5051334;28;20553;-74
2023/06/18 10:51:36;;;;;;;;;;;36.80;37.60;;;;;;5043166;28;19917;-74
2023/06/18 10:54:20;;;;;;;;;;;36.00;39.50;;;;;;5054450;28;20659;-74
2023/06/18 10:56:51;;;;;;;;;;;36.70;40.00;;;;;;5049647;28;19963;-74
2023/06/18 10:59:31;;;;;;;;;;;35.20;40.50;;;;;;5053570;28;19920;-74
2023/06/18 11:01:58;;;;;;;;;;;35.50;38.90;;;;;;5055400;28;19919;-74
2023/06/18 11:04:24;;;;;;;;;;;34.20;41.00;;;;;;5059426;28;19912;-74
2023/06/18 11:06:50;;;;;;;;;;;35.10;40.90;;;;;;5056160;28;19946;-74
2023/06/18 11:09:15;;;;;;;;;;;35.50;39.80;;;;;;5058734;28;20436;-73
2023/06/18 11:11:49;;;;;;;;;;;35.90;37.70;;;;;;5054332;28;20277;-73
2023/06/18 11:14:18;;;;;;;;;;;35.70;40.70;;;;;;5032339;28;19924;-74
2023/06/18 11:17:04;;;;;;;;;;;34.70;40.00;;;;;;5046725;28;19936;-73
2023/06/18 11:19:29;;;;;;;;;;;33.90;41.60;;;;;;5052859;28;19921;-74
2023/06/18 11:21:55;;;;;;;;;;;33.50;42.90;;;;;;5053280;28;19920;-74
2023/06/18 11:24:21;;;;;;;;;;;33.70;42.70;;;;;;5055137;28;19920;-74
2023/06/18 11:26:47;;;;;;;;;;;33.80;41.60;;;;;;5048465;28;19917;-74
2023/06/18 11:29:13;;;;;;;;;;;33.30;42.00;;;;;;5059247;28;19940;-74
2023/06/18 11:31:38;;;;;;;;;;;33.90;41.90;;;;;;5050892;28;20033;-74
2023/06/18 11:34:06;;;;;;;;;;;34.10;40.80;;;;;;5055400;28;19912;-74
2023/06/18 11:36:32;;;;;;;;;;;35.20;39.70;;;;;;5058349;28;19912;-74
2023/06/18 11:38:58;;;;;;;;;;;35.20;40.70;;;;;;5065338;28;19915;-74
2023/06/18 11:41:24;;;;;;;;;;;35.00;40.20;;;;;;5053530;28;19943;-73
2023/06/18 11:43:51;;;;;;;;;;;34.60;39.80;;;;;;5059865;28;19913;-74
2023/06/18 11:46:28;;;;;;;;;;;34.00;42.00;;;;;;5056043;28;19917;-74
2023/06/18 11:48:55;;;;;;;;;;;34.00;42.50;;;;;;5056092;28;19916;-73
2023/06/18 11:51:21;;;;;;;;;;;33.70;41.60;;;;;;5055306;28;20326;-73
2023/06/18 11:53:47;;;;;;;;;;;34.10;39.50;;;;;;5058435;28;19927;-74
2023/06/18 11:56:13;;;;;;;;;;;34.20;39.80;;;;;;5042871;28;19912;-74
2023/06/18 11:58:38;;;;;;;;;;;34.20;41.50;;;;;;5042374;28;19921;-74
2023/06/18 12:01:04;;;;;;;;;;;34.20;41.00;;;;;;5058016;28;19913;-73
2023/06/18 12:03:33;;;;;;;;;;;34.40;40.70;;;;;;5051059;28;19919;-74
2023/06/18 12:05:59;;;;;;;;;;;34.10;39.20;;;;;;5052337;28;20307;-74
2023/06/18 12:08:25;;;;;;;;;;;33.60;41.90;;;;;;5061195;28;19916;-74
2023/06/18 12:10:51;;;;;;;;;;;34.20;40.30;;;;;;5052120;28;19916;-73
2023/06/18 12:13:24;;;;;;;;;;;33.60;41.60;;;;;;5055345;28;19912;-74
2023/06/18 12:15:54;;;;;;;;;;;33.60;40.90;;;;;;5041863;28;19917;-74
2023/06/18 12:18:23;;;;;;;;;;;34.20;40.90;;;;;;5053791;28;19957;-74
2023/06/18 12:20:49;;;;;;;;;;;34.00;41.70;;;;;;5047808;28;20941;-73
2023/06/18 12:23:15;;;;;;;;;;;33.30;42.20;;;;;;5056354;28;19918;-74
2023/06/18 12:25:40;;;;;;;;;;;33.40;42.80;;;;;;5060315;28;19912;-74
2023/06/18 12:28:06;;;;;;;;;;;33.60;42.50;;;;;;5062345;28;19963;-74
2023/06/18 12:30:35;;;;;;;;;;;33.60;43.90;;;;;;5057984;28;20373;-74
2023/06/18 12:33:06;;;;;;;;;;;33.50;43.80;;;;;;5057336;28;19919;-74
2023/06/18 12:35:34;;;;;;;;;;;33.70;43.90;;;;;;5060785;28;19912;-74
2023/06/18 12:38:09;;;;;;;;;;;33.70;43.70;;;;;;5057467;28;19932;-74
2023/06/18 12:40:46;;;;;;;;;;;33.80;42.80;;;;;;5059818;28;19912;-74
2023/06/18 12:43:12;;;;;;;;;;;33.70;42.80;;;;;;5058780;28;19920;-74
2023/06/18 12:45:38;;;;;;;;;;;33.90;43.60;;;;;;5056388;28;19912;-74
2023/06/18 12:48:14;;;;;;;;;;;33.90;42.60;;;;;;5042396;28;19920;-74
2023/06/18 12:50:41;;;;;;;;;;;33.90;44.80;;;;;;5060046;28;19943;-74
2023/06/18 12:53:14;;;;;;;;;;;33.70;44.00;;;;;;5059292;28;19963;-74
2023/06/18 12:55:40;;;;;;;;;;;33.50;44.00;;;;;;5056873;28;19912;-74
2023/06/18 12:58:17;;;;;;;;;;;33.20;44.40;;;;;;5053392;28;20869;-74
2023/06/18 13:00:43;;;;;;;;;;;33.00;45.10;;;;;;5054426;28;19920;-74
2023/06/18 13:03:09;;;;;;;;;;;33.00;45.80;;;;;;5059505;28;20774;-73
2023/06/18 13:05:35;;;;;;;;;;;33.20;46.60;;;;;;5056678;28;19977;-74
2023/06/18 13:08:01;;;;;;;;;;;33.20;47.30;;;;;;5055378;28;19920;-73
2023/06/18 13:10:27;;;;;;;;;;;32.90;46.40;;;;;;5059914;28;19965;-74
2023/06/18 13:12:53;;;;;;;;;;;32.90;46.50;;;;;;5054991;28;20307;-74
2023/06/18 13:15:18;;;;;;;;;;;32.70;47.50;;;;;;5046634;28;19919;-73
2023/06/18 13:17:44;;;;;;;;;;;32.40;47.00;;;;;;5052839;28;19912;-73
2023/06/18 13:20:10;;;;;;;;;;;32.90;47.20;;;;;;5053796;28;20565;-73
2023/06/18 13:22:36;;;;;;;;;;;32.70;47.40;;;;;;5059154;28;19908;-74
2023/06/18 13:25:03;;;;;;;;;;;32.70;48.70;;;;;;5055281;28;19947;-74
2023/06/18 13:27:28;;;;;;;;;;;33.20;48.80;;;;;;5053994;28;19927;-74
2023/06/18 13:29:55;;;;;;;;;;;33.20;49.40;;;;;;5054414;28;19916;-74
2023/06/18 13:32:21;;;;;;;;;;;32.90;49.90;;;;;;5034184;28;19980;-73
2023/06/18 13:34:48;;;;;;;;;;;32.70;48.70;;;;;;5052533;28;20415;-74
2023/06/18 13:37:13;;;;;;;;;;;32.50;49.10;;;;;;5054759;28;19909;-74
2023/06/18 13:39:39;;;;;;;;;;;31.90;48.20;;;;;;5057336;28;19912;-74
2023/06/18 13:42:04;;;;;;;;;;;32.30;50.00;;;;;;5056728;28;19951;-74
2023/06/18 13:44:30;;;;;;;;;;;31.90;49.70;;;;;;5061428;28;19955;-74
2023/06/18 13:46:56;;;;;;;;;;;31.90;50.00;;;;;;5057760;28;19920;-74
2023/06/18 13:49:21;;;;;;;;;;;32.00;51.10;;;;;;5054816;28;19908;-73
2023/06/18 13:51:47;;;;;;;;;;;31.70;51.60;;;;;;5050708;28;19920;-74
2023/06/18 13:54:12;;;;;;;;;;;31.80;52.70;;;;;;5048820;28;19986;-74
2023/06/18 13:56:38;;;;;;;;;;;31.90;52.60;;;;;;5048161;28;19923;-74
2023/06/18 13:59:04;;;;;;;;;;;31.90;51.80;;;;;;5046876;28;19916;-74
2023/06/18 14:01:30;;;;;;;;;;;32.20;52.70;;;;;;5050170;28;20077;-74
2023/06/18 14:03:55;;;;;;;;;;;32.30;53.50;;;;;;5050019;28;19990;-75
2023/06/18 14:06:21;;;;;;;;;;;32.00;52.80;;;;;;5034539;28;19920;-74
2023/06/18 14:08:46;;;;;;;;;;;32.10;53.10;;;;;;5056167;28;19912;-74
2023/06/18 14:11:12;;;;;;;;;;;32.10;53.90;;;;;;5056993;28;20006;-74
2023/06/18 14:13:37;;;;;;;;;;;32.00;53.50;;;;;;5045836;28;20012;-74